createdAt,value
2019-04-10T00:01:29.875Z,16.30
2019-04-10T00:04:02.874Z,18.10
2019-04-10T00:06:34.444Z,17.17
2019-04-10T00:09:06.915Z,17.83
2019-04-10T00:11:38.318Z,17.97
2019-04-10T00:14:10.283Z,17.63
2019-04-10T00:16:42.288Z,16.07
2019-04-10T00:19:14.861Z,17.57
2019-04-10T00:21:47.411Z,18.83
2019-04-10T00:24:19.863Z,19.97
2019-04-10T00:26:52.257Z,18.30
2019-04-10T00:29:24.521Z,16.67
2019-04-10T00:31:56.364Z,17.63
2019-04-10T00:34:28.390Z,18.37
2019-04-10T00:36:59.896Z,20.83
2019-04-10T00:39:31.387Z,18.03
2019-04-10T00:42:03.019Z,28.10
2019-04-10T00:44:35.450Z,19.83
2019-04-10T00:47:06.669Z,20.40
2019-04-10T00:49:38.082Z,18.23
2019-04-10T00:52:10.191Z,21.43
2019-04-10T00:54:41.624Z,19.33
2019-04-10T00:57:13.036Z,21.20
2019-04-10T00:59:44.523Z,19.17
2019-04-10T01:02:16.468Z,21.23
2019-04-10T01:04:48.865Z,19.43
2019-04-10T01:07:32.622Z,20.40
2019-04-10T01:09:53.969Z,22.10
2019-04-10T01:12:25.162Z,19.30
2019-04-10T01:14:56.536Z,22.47
2019-04-10T01:17:28.530Z,24.87
2019-04-10T01:20:00.652Z,21.23
2019-04-10T01:22:32.948Z,23.37
2019-04-10T01:25:04.392Z,21.83
2019-04-10T01:27:36.463Z,21.63
2019-04-10T01:30:08.753Z,24.50
2019-04-10T01:32:40.177Z,23.07
2019-04-10T01:35:11.218Z,20.73
2019-04-10T01:37:49.518Z,23.50
2019-04-10T01:40:15.056Z,22.53
2019-04-10T01:42:59.981Z,21.33
2019-04-10T01:45:19.768Z,23.87
2019-04-10T01:47:51.269Z,25.60
2019-04-10T01:50:23.231Z,21.80
2019-04-10T01:52:55.537Z,20.57
2019-04-10T01:55:30.294Z,21.77
2019-04-10T01:58:01.631Z,18.87
2019-04-10T02:00:33.681Z,24.90
2019-04-10T02:03:05.576Z,18.27
2019-04-10T02:05:38.739Z,18.43
2019-04-10T02:08:13.538Z,20.47
2019-04-10T02:10:43.376Z,19.33
2019-04-10T02:13:15.199Z,19.00
2019-04-10T02:15:46.831Z,19.37
2019-04-10T02:18:19.103Z,19.73
2019-04-10T02:20:51.567Z,21.77
2019-04-10T02:23:22.615Z,21.60
2019-04-10T02:25:54.854Z,19.73
2019-04-10T02:28:27.040Z,19.97
2019-04-10T02:30:58.831Z,20.67
2019-04-10T02:33:31.457Z,18.10
2019-04-10T02:36:03.722Z,22.97
2019-04-10T02:38:50.822Z,19.97
2019-04-10T02:41:10.381Z,20.37
2019-04-10T02:43:43.087Z,22.37
2019-04-10T02:46:15.575Z,18.87
2019-04-10T02:48:47.627Z,16.97
2019-04-10T02:51:20.115Z,20.30
2019-04-10T02:53:53.020Z,18.37
2019-04-10T02:56:25.346Z,17.87
2019-04-10T02:58:58.529Z,19.63
2019-04-10T03:01:31.501Z,17.93
2019-04-10T03:04:03.460Z,18.17
2019-04-10T03:06:35.433Z,18.70
2019-04-10T03:09:26.160Z,17.30
2019-04-10T03:11:41.986Z,18.63
2019-04-10T03:14:14.814Z,18.83
2019-04-10T03:16:47.886Z,17.90
2019-04-10T03:19:19.708Z,17.47
2019-04-10T03:21:51.667Z,18.67
2019-04-10T03:24:23.234Z,17.83
2019-04-10T03:26:56.188Z,18.43
2019-04-10T03:29:27.906Z,17.80
2019-04-10T03:32:02.126Z,19.03
2019-04-10T03:34:38.091Z,17.83
2019-04-10T03:37:07.648Z,18.63
2019-04-10T03:39:40.514Z,17.70
2019-04-10T03:42:12.689Z,17.10
2019-04-10T03:44:45.192Z,16.60
2019-04-10T03:47:20.248Z,17.17
2019-04-10T03:49:51.948Z,17.37
2019-04-10T03:52:25.327Z,15.93
2019-04-10T03:54:56.589Z,18.13
2019-04-10T03:57:28.839Z,17.73
2019-04-10T04:00:01.535Z,16.90
2019-04-10T04:02:32.860Z,16.00
2019-04-10T04:05:04.395Z,17.80
2019-04-10T04:07:35.168Z,21.60
2019-04-10T04:10:06.618Z,25.03
2019-04-10T04:12:37.216Z,26.43
2019-04-10T04:15:09.420Z,30.67
2019-04-10T04:17:40.544Z,29.10
2019-04-10T04:20:12.818Z,28.37
2019-04-10T04:22:43.882Z,22.93
2019-04-10T04:25:15.048Z,18.83
2019-04-10T04:27:46.327Z,19.47
2019-04-10T04:30:17.445Z,23.13
2019-04-10T04:32:48.747Z,21.67
2019-04-10T04:35:20.771Z,23.30
2019-04-10T04:37:51.324Z,23.80
2019-04-10T04:40:23.569Z,27.63
2019-04-10T04:42:55.638Z,30.00
2019-04-10T04:45:27.617Z,26.37
2019-04-10T04:47:59.783Z,21.83
2019-04-10T04:50:31.328Z,20.63
2019-04-10T04:53:02.952Z,19.30
2019-04-10T04:55:35.185Z,19.80
2019-04-10T04:58:06.213Z,19.90
2019-04-10T05:00:37.862Z,21.30
2019-04-10T05:03:09.897Z,23.83
2019-04-10T05:05:41.433Z,20.90
2019-04-10T05:08:13.211Z,21.20
2019-04-10T05:10:45.295Z,19.77
2019-04-10T05:13:16.405Z,23.60
2019-04-10T05:15:49.182Z,22.97
2019-04-10T05:18:21.236Z,35.57
2019-04-10T05:20:52.858Z,28.00
2019-04-10T05:23:24.523Z,29.60
2019-04-10T05:25:56.134Z,23.50
2019-04-10T05:28:28.522Z,26.63
2019-04-10T05:31:00.919Z,25.00
2019-04-10T05:33:32.945Z,22.50
2019-04-10T05:36:04.822Z,25.37
2019-04-10T05:38:35.514Z,23.57
2019-04-10T05:41:13.375Z,25.60
2019-04-10T05:43:44.783Z,24.67
2019-04-10T05:46:16.455Z,23.43
2019-04-10T05:48:49.008Z,26.87
2019-04-10T05:51:19.910Z,29.77
2019-04-10T05:53:52.653Z,28.97
2019-04-10T05:56:23.519Z,27.57
2019-04-10T05:58:54.589Z,25.77
2019-04-10T06:01:34.885Z,28.33
2019-04-10T06:03:58.482Z,28.43
2019-04-10T06:06:29.196Z,26.73
2019-04-10T06:09:00.510Z,25.60
2019-04-10T06:11:33.050Z,28.60
2019-04-10T06:14:06.548Z,28.10
2019-04-10T06:16:38.233Z,27.27
2019-04-10T06:19:09.571Z,25.03
2019-04-10T06:21:41.493Z,28.03
2019-04-10T06:24:14.189Z,26.10
2019-04-10T06:26:45.962Z,26.80
2019-04-10T06:29:17.128Z,27.33
2019-04-10T06:31:49.222Z,26.57
2019-04-10T06:34:20.774Z,25.13
2019-04-10T06:36:51.956Z,24.90
2019-04-10T06:39:23.166Z,28.85
2019-04-10T06:41:54.302Z,27.20
2019-04-10T06:44:25.922Z,24.97
2019-04-10T06:46:57.120Z,32.37
2019-04-10T06:49:29.067Z,32.20
2019-04-10T06:52:00.235Z,29.30
2019-04-10T06:54:31.279Z,29.17
2019-04-10T06:57:02.852Z,26.20
2019-04-10T06:59:34.403Z,26.37
2019-04-10T07:02:16.787Z,24.70
2019-04-10T07:04:45.989Z,23.97
2019-04-10T07:07:43.404Z,25.63
2019-04-10T07:10:02.339Z,27.80
2019-04-10T07:12:34.080Z,25.60
2019-04-10T07:15:06.533Z,23.93
2019-04-10T07:17:40.652Z,28.37
2019-04-10T07:20:10.724Z,25.97
2019-04-10T07:22:46.578Z,25.07
2019-04-10T07:25:15.785Z,24.63
2019-04-10T07:27:46.473Z,25.10
2019-04-10T07:30:17.514Z,25.77
2019-04-10T07:32:49.220Z,24.83
2019-04-10T07:35:21.887Z,23.73
2019-04-10T07:37:56.031Z,22.00
2019-04-10T07:40:25.468Z,21.77
2019-04-10T07:42:56.923Z,21.67
2019-04-10T07:45:28.556Z,25.53
2019-04-10T07:48:00.234Z,22.73
2019-04-10T07:50:31.458Z,19.97
2019-04-10T07:53:02.550Z,23.53
2019-04-10T07:55:33.710Z,22.17
2019-04-10T07:58:04.855Z,21.07
2019-04-10T08:00:36.653Z,23.20
2019-04-10T08:03:08.333Z,21.87
2019-04-10T08:05:39.663Z,23.33
2019-04-10T08:08:10.612Z,22.33
2019-04-10T08:10:43.676Z,24.63
2019-04-10T08:13:14.398Z,22.93
2019-04-10T08:15:45.807Z,27.23
2019-04-10T08:18:17.557Z,23.23
2019-04-10T08:20:48.882Z,25.48
2019-04-10T08:23:20.438Z,24.40
2019-04-10T08:25:51.976Z,23.20
2019-04-10T08:28:22.518Z,23.37
2019-04-10T08:30:54.552Z,22.60
2019-04-10T08:33:26.048Z,23.85
2019-04-10T08:35:57.156Z,26.83
2019-04-10T08:38:28.287Z,25.03
2019-04-10T08:41:00.716Z,21.00
2019-04-10T08:43:32.402Z,23.50
2019-04-10T08:46:05.255Z,22.67
2019-04-10T08:48:37.050Z,24.80
2019-04-10T08:51:08.769Z,22.97
2019-04-10T08:53:40.370Z,22.03
2019-04-10T08:56:12.999Z,21.73
2019-04-10T08:58:43.619Z,25.97
2019-04-10T09:01:15.426Z,22.70
2019-04-10T09:03:47.173Z,22.83
2019-04-10T09:06:19.344Z,22.27
2019-04-10T09:08:51.695Z,20.07
2019-04-10T09:11:26.889Z,19.80
2019-04-10T09:13:56.841Z,19.87
2019-04-10T09:16:28.831Z,21.27
2019-04-10T09:19:01.389Z,21.07
2019-04-10T09:21:33.100Z,19.00
2019-04-10T09:24:05.024Z,20.77
2019-04-10T09:26:36.929Z,20.00
2019-04-10T09:29:07.474Z,17.40
2019-04-10T09:31:40.024Z,19.27
2019-04-10T09:34:11.765Z,17.67
2019-04-10T09:36:43.732Z,17.10
2019-04-10T09:39:17.185Z,19.20
2019-04-10T09:41:48.504Z,18.60
2019-04-10T09:44:21.350Z,18.30
2019-04-10T09:46:52.229Z,20.27
2019-04-10T09:49:33.580Z,20.95
2019-04-10T09:51:56.470Z,18.53
2019-04-10T09:54:28.151Z,17.30
2019-04-10T09:56:59.399Z,18.90
2019-04-10T09:59:35.871Z,18.60
2019-04-10T10:02:03.333Z,17.13
2019-04-10T10:04:35.851Z,17.27
2019-04-10T10:07:10.288Z,18.17
2019-04-10T10:09:41.314Z,16.03
2019-04-10T10:12:13.642Z,15.80
2019-04-10T10:14:46.446Z,17.20
2019-04-10T10:17:17.769Z,15.87
2019-04-10T10:19:49.957Z,16.27
2019-04-10T10:22:21.868Z,18.27
2019-04-10T10:24:53.635Z,14.10
2019-04-10T10:27:24.749Z,17.90
2019-04-10T10:29:56.073Z,15.33
2019-04-10T10:32:28.933Z,14.70
2019-04-10T10:35:00.947Z,12.93
2019-04-10T10:37:32.632Z,12.47
2019-04-10T10:40:03.643Z,11.23
2019-04-10T10:42:37.045Z,10.07
2019-04-10T10:45:10.288Z,9.13
2019-04-10T10:47:41.584Z,9.30
2019-04-10T10:50:13.148Z,10.17
2019-04-10T10:52:44.367Z,10.73
2019-04-10T10:55:15.660Z,12.78
2019-04-10T10:57:47.687Z,10.83
2019-04-10T11:00:23.096Z,9.03
2019-04-10T11:02:55.966Z,10.63
2019-04-10T11:05:30.354Z,10.70
2019-04-10T11:08:00.012Z,10.37
2019-04-10T11:10:31.445Z,9.75
2019-04-10T11:13:02.495Z,8.30
2019-04-10T11:15:34.072Z,8.55
2019-04-10T11:18:06.428Z,7.67
2019-04-10T11:20:37.723Z,8.43
2019-04-10T11:23:09.573Z,8.27
2019-04-10T11:25:40.905Z,8.23
2019-04-10T11:28:12.554Z,9.78
2019-04-10T11:30:44.952Z,7.07
2019-04-10T11:33:17.873Z,8.08
2019-04-10T11:35:51.534Z,7.73
2019-04-10T11:38:25.676Z,8.13
2019-04-10T11:40:58.179Z,8.28
2019-04-10T11:43:30.198Z,8.93
2019-04-10T11:46:02.706Z,8.97
2019-04-10T11:48:36.511Z,8.60
2019-04-10T11:51:11.933Z,8.57
2019-04-10T11:53:44.519Z,8.60
2019-04-10T11:56:13.742Z,8.13
2019-04-10T11:58:53.787Z,8.38
2019-04-10T12:01:18.334Z,8.40
2019-04-10T12:03:52.198Z,8.03
2019-04-10T12:06:25.246Z,10.13
2019-04-10T12:11:29.515Z,7.97
2019-04-10T12:14:01.601Z,7.63
2019-04-10T12:16:33.445Z,10.47
2019-04-10T12:19:04.758Z,9.43
2019-04-10T12:21:36.205Z,8.93
2019-04-10T12:24:07.433Z,8.73
2019-04-10T12:26:38.668Z,8.50
2019-04-10T12:29:10.736Z,9.83
2019-04-10T12:31:43.932Z,10.43
2019-04-10T12:34:16.265Z,10.17
2019-04-10T12:36:49.000Z,10.03
2019-04-10T12:39:22.551Z,10.77
2019-04-10T12:41:55.462Z,12.00
2019-04-10T12:44:27.262Z,11.23
2019-04-10T12:46:59.540Z,10.65
2019-04-10T12:49:31.700Z,11.93
2019-04-10T12:52:03.632Z,10.10
2019-04-10T12:54:35.547Z,10.60
2019-04-10T12:57:06.848Z,9.53
2019-04-10T12:59:37.631Z,9.50
2019-04-10T13:02:10.923Z,11.80
2019-04-10T13:04:43.497Z,9.63
2019-04-10T13:07:15.725Z,9.53
2019-04-10T13:09:48.346Z,8.83
2019-04-10T13:12:20.880Z,8.87
2019-04-10T13:14:52.944Z,9.63
2019-04-10T13:17:24.823Z,8.43
2019-04-10T13:19:57.538Z,8.40
2019-04-10T13:22:30.161Z,9.67
2019-04-10T13:25:03.296Z,9.50
2019-04-10T13:27:34.787Z,9.47
2019-04-10T13:30:07.109Z,7.50
2019-04-10T13:32:38.584Z,7.40
2019-04-10T13:35:10.337Z,7.17
2019-04-10T13:37:42.007Z,7.53
2019-04-10T13:40:13.886Z,6.47
2019-04-10T13:42:45.599Z,6.30
2019-04-10T13:45:19.405Z,9.23
2019-04-10T13:47:53.239Z,7.30
2019-04-10T13:50:26.372Z,6.23
2019-04-10T13:53:03.824Z,6.73
2019-04-10T13:55:34.637Z,7.30
2019-04-10T13:58:06.990Z,7.90
2019-04-10T14:00:40.680Z,6.07
2019-04-10T14:03:14.273Z,8.57
2019-04-10T14:05:47.739Z,6.77
2019-04-10T14:08:20.007Z,5.93
2019-04-10T14:10:52.905Z,4.70
2019-04-10T14:13:24.752Z,6.27
2019-04-10T14:15:56.404Z,5.17
2019-04-10T14:18:28.758Z,5.70
2019-04-10T14:21:00.011Z,5.40
2019-04-10T14:23:31.953Z,4.57
2019-04-10T14:26:40.813Z,5.03
2019-04-10T14:29:03.007Z,4.10
2019-04-10T14:31:38.919Z,2.60
2019-04-10T14:34:10.367Z,3.97
2019-04-10T14:36:42.204Z,4.53
2019-04-10T14:39:20.820Z,2.40
2019-04-10T14:41:49.784Z,2.70
2019-04-10T14:44:20.973Z,2.73
2019-04-10T14:46:51.851Z,3.47
2019-04-10T14:49:22.963Z,2.57
2019-04-10T14:51:54.710Z,2.37
2019-04-10T14:54:26.003Z,3.07
2019-04-10T14:56:56.931Z,2.77
2019-04-10T14:59:28.210Z,5.00
2019-04-10T15:01:59.996Z,3.00
2019-04-10T15:04:31.012Z,2.90
2019-04-10T15:07:02.510Z,3.67
2019-04-10T15:09:34.611Z,3.87
2019-04-10T15:12:09.654Z,4.73
2019-04-10T15:14:40.718Z,3.57
2019-04-10T15:17:12.713Z,3.40
2019-04-10T15:19:44.709Z,2.97
2019-04-10T15:22:15.910Z,3.07
2019-04-10T15:24:46.921Z,3.33
2019-04-10T15:27:20.109Z,2.83
2019-04-10T15:29:50.719Z,2.60
2019-04-10T15:32:22.347Z,2.93
2019-04-10T15:34:54.110Z,3.23
2019-04-10T15:37:25.214Z,2.97
2019-04-10T15:39:56.605Z,2.60
2019-04-10T15:42:28.382Z,2.47
2019-04-10T15:44:59.347Z,2.60
2019-04-10T15:47:31.310Z,2.40
2019-04-10T15:50:02.099Z,3.30
2019-04-10T15:52:33.863Z,2.53
2019-04-10T15:55:05.729Z,2.93
2019-04-10T15:57:49.147Z,2.67
2019-04-10T16:00:10.795Z,3.03
2019-04-10T16:02:41.996Z,3.67
2019-04-10T16:05:13.679Z,5.00
2019-04-10T16:07:45.328Z,5.97
2019-04-10T16:10:35.171Z,6.33
2019-04-10T16:13:16.609Z,6.50
2019-04-10T16:15:48.070Z,7.30
2019-04-10T16:18:23.447Z,8.03
2019-04-10T16:20:55.465Z,6.57
2019-04-10T16:23:40.030Z,5.57
2019-04-10T16:26:13.122Z,6.87
2019-04-10T16:28:45.237Z,7.40
2019-04-10T16:31:16.907Z,6.87
2019-04-10T16:33:50.438Z,7.47
2019-04-10T16:36:23.400Z,7.47
2019-04-10T16:38:55.744Z,7.43
2019-04-10T16:41:29.544Z,7.40
2019-04-10T16:44:02.539Z,7.87
2019-04-10T16:46:34.775Z,8.33
2019-04-10T16:49:06.889Z,8.67
2019-04-10T16:51:38.579Z,8.23
2019-04-10T16:54:10.803Z,9.27
2019-04-10T16:56:42.238Z,8.70
2019-04-10T16:59:14.199Z,8.67
2019-04-10T17:01:45.555Z,7.90
2019-04-10T17:04:17.559Z,7.97
2019-04-10T17:06:50.473Z,9.83
2019-04-10T17:09:24.837Z,8.57
2019-04-10T17:11:58.602Z,8.77
2019-04-10T17:14:31.341Z,8.63
2019-04-10T17:17:02.770Z,10.17
2019-04-10T17:19:46.567Z,9.13
2019-04-10T17:22:08.863Z,7.67
2019-04-10T17:24:39.888Z,8.30
2019-04-10T17:27:11.757Z,7.60
2019-04-10T17:29:42.331Z,10.23
2019-04-10T17:32:15.095Z,5.83
2019-04-10T17:34:49.282Z,6.03
2019-04-10T17:37:21.326Z,4.93
2019-04-10T17:39:53.351Z,7.83
2019-04-10T17:42:24.484Z,4.50
2019-04-10T17:44:56.224Z,5.90
2019-04-10T17:47:29.093Z,5.17
2019-04-10T17:50:00.797Z,6.30
2019-04-10T17:52:34.729Z,5.70
2019-04-10T17:55:07.220Z,5.57
2019-04-10T17:57:41.545Z,6.73
2019-04-10T18:00:27.670Z,6.17
2019-04-10T18:02:59.228Z,7.17
2019-04-10T18:05:30.864Z,6.50
2019-04-10T18:08:03.471Z,7.10
2019-04-10T18:10:43.469Z,6.77
2019-04-10T18:13:08.482Z,7.70
2019-04-10T18:15:40.564Z,9.80
2019-04-10T18:18:13.553Z,6.27
2019-04-10T18:20:44.997Z,8.10
2019-04-10T18:23:17.490Z,7.20
2019-04-10T18:25:49.856Z,8.83
2019-04-10T18:28:23.449Z,7.07
2019-04-10T18:30:54.477Z,10.73
2019-04-10T18:33:26.537Z,8.53
2019-04-10T18:35:57.770Z,8.37
2019-04-10T18:38:30.482Z,7.47
2019-04-10T18:41:05.755Z,7.17
2019-04-10T18:43:36.391Z,9.27
2019-04-10T18:46:13.402Z,7.57
2019-04-10T18:48:44.334Z,8.37
2019-04-10T18:51:18.040Z,11.33
2019-04-10T18:53:53.368Z,10.07
2019-04-10T18:56:27.204Z,10.33
2019-04-10T18:59:18.526Z,9.37
2019-04-10T19:02:04.083Z,9.13
2019-04-10T19:04:51.680Z,9.67
2019-04-10T19:07:22.914Z,10.90
2019-04-10T19:09:54.967Z,8.80
2019-04-10T19:12:26.459Z,10.93
2019-04-10T19:14:58.349Z,9.50
2019-04-10T19:17:31.025Z,10.23
2019-04-10T19:20:04.078Z,10.47
2019-04-10T19:22:36.885Z,11.67
2019-04-10T19:25:08.447Z,11.77
2019-04-10T19:27:42.362Z,15.67
2019-04-10T19:30:43.566Z,10.07
2019-04-10T19:33:16.134Z,10.10
2019-04-10T19:35:47.589Z,10.93
2019-04-10T19:38:21.085Z,10.37
2019-04-10T19:40:52.303Z,11.57
2019-04-10T19:43:24.197Z,11.60
2019-04-10T19:45:56.453Z,13.90
2019-04-10T19:48:30.934Z,16.50
2019-04-10T19:51:02.559Z,14.73
2019-04-10T19:53:35.309Z,17.53
2019-04-10T19:56:09.321Z,19.10
2019-04-10T19:58:41.859Z,21.90
2019-04-10T20:01:15.494Z,20.57
2019-04-10T20:03:46.552Z,22.17
2019-04-10T20:06:19.061Z,19.97
2019-04-10T20:08:50.605Z,21.23
2019-04-10T20:11:33.801Z,17.10
2019-04-10T20:13:57.633Z,18.33
2019-04-10T20:16:31.484Z,20.00
2019-04-10T20:19:04.030Z,20.37
2019-04-10T20:21:36.895Z,19.87
2019-04-10T20:24:10.387Z,22.93
2019-04-10T20:26:43.410Z,23.43
2019-04-10T20:29:15.138Z,22.73
2019-04-10T20:31:47.815Z,21.97
2019-04-10T20:34:21.234Z,18.13
2019-04-10T20:36:55.332Z,17.77
2019-04-10T20:39:27.623Z,20.57
2019-04-10T20:42:02.436Z,18.23
2019-04-10T20:44:35.242Z,20.80
2019-04-10T20:47:08.741Z,16.07
2019-04-10T20:49:41.267Z,19.20
2019-04-10T20:52:14.587Z,18.33
2019-04-10T20:54:46.862Z,18.20
2019-04-10T20:57:19.418Z,17.70
2019-04-10T20:59:51.303Z,16.37
2019-04-10T21:02:22.902Z,19.20
2019-04-10T21:05:01.319Z,17.87
2019-04-10T21:07:28.290Z,17.07
2019-04-10T21:10:00.704Z,18.37
2019-04-10T21:12:32.254Z,17.00
2019-04-10T21:15:05.413Z,17.47
2019-04-10T21:17:39.951Z,18.50
2019-04-10T21:20:13.276Z,15.83
2019-04-10T21:22:45.153Z,15.60
2019-04-10T21:25:17.052Z,18.03
2019-04-10T21:27:50.431Z,16.17
2019-04-10T21:30:46.528Z,16.03
2019-04-10T21:33:36.710Z,16.80
2019-04-10T21:36:09.358Z,19.87
2019-04-10T21:38:41.435Z,18.23
2019-04-10T21:41:14.232Z,15.33
2019-04-10T21:43:45.825Z,15.53
2019-04-10T21:46:17.605Z,13.07
2019-04-10T21:48:50.966Z,13.27
2019-04-10T21:51:23.235Z,11.50
2019-04-10T21:53:54.593Z,11.67
2019-04-10T21:56:27.483Z,8.80
2019-04-10T21:58:59.622Z,12.03
2019-04-10T22:01:32.512Z,9.13
2019-04-10T22:04:06.181Z,15.20
2019-04-10T22:06:59.834Z,12.40
2019-04-10T22:09:47.657Z,10.17
2019-04-10T22:12:30.631Z,12.40
2019-04-10T22:14:56.110Z,12.87
2019-04-10T22:17:27.989Z,19.77
2019-04-10T22:19:59.501Z,18.17
2019-04-10T22:22:30.984Z,19.73
2019-04-10T22:25:03.334Z,19.33
2019-04-10T22:27:35.973Z,21.53
2019-04-10T22:30:10.386Z,15.10
2019-04-10T22:32:42.790Z,16.00
2019-04-10T22:35:15.236Z,14.17
2019-04-10T22:37:48.244Z,15.37
2019-04-10T22:40:19.905Z,18.27
2019-04-10T22:42:53.241Z,23.77
2019-04-10T22:45:31.159Z,20.80
2019-04-10T22:48:04.097Z,19.77
2019-04-10T22:50:36.527Z,18.83
2019-04-10T22:53:08.891Z,15.80
2019-04-10T22:55:42.315Z,17.83
2019-04-10T22:58:14.858Z,18.00
2019-04-10T23:00:46.421Z,19.20
2019-04-10T23:03:18.094Z,18.73
2019-04-10T23:05:49.516Z,16.60
2019-04-10T23:08:20.885Z,19.50
2019-04-10T23:10:53.087Z,18.67
2019-04-10T23:13:25.874Z,22.17
2019-04-10T23:15:57.939Z,16.37
2019-04-10T23:18:29.924Z,13.23
2019-04-10T23:21:01.533Z,18.70
2019-04-10T23:23:33.246Z,13.93
2019-04-10T23:26:04.870Z,14.73
2019-04-10T23:28:37.777Z,12.37
2019-04-10T23:31:09.960Z,9.80
2019-04-10T23:33:41.970Z,11.30
2019-04-10T23:36:13.943Z,13.03
2019-04-10T23:38:45.862Z,10.23
2019-04-10T23:41:17.986Z,10.97
2019-04-10T23:43:49.850Z,11.20
2019-04-10T23:46:22.230Z,14.93
2019-04-10T23:48:53.744Z,11.37
2019-04-10T23:51:25.290Z,9.97
2019-04-10T23:53:57.231Z,10.33
2019-04-10T23:56:29.444Z,8.63
2019-04-10T23:59:00.586Z,8.57
